createdAt,value
2017-11-17T00:00:38.400Z,102.80
2017-11-17T00:03:06.687Z,92.33
2017-11-17T00:05:34.189Z,98.97
2017-11-17T00:08:01.718Z,99.30
2017-11-17T00:10:29.223Z,95.57
2017-11-17T00:12:56.753Z,90.57
2017-11-17T00:15:24.267Z,104.33
2017-11-17T00:17:52.569Z,82.33
2017-11-17T00:20:20.076Z,96.00
2017-11-17T00:22:47.599Z,93.00
2017-11-17T00:25:15.108Z,90.43
2017-11-17T00:27:43.396Z,93.47
2017-11-17T00:30:10.933Z,91.23
2017-11-17T00:32:38.456Z,92.00
2017-11-17T00:35:05.966Z,95.63
2017-11-17T00:37:34.256Z,91.00
2017-11-17T00:40:01.773Z,93.30
2017-11-17T00:42:29.301Z,92.10
2017-11-17T00:44:56.817Z,98.30
2017-11-17T00:47:25.108Z,102.37
2017-11-17T00:49:52.625Z,104.40
2017-11-17T00:52:20.132Z,99.90
2017-11-17T00:54:47.668Z,102.03
2017-11-17T00:57:15.940Z,97.67
2017-11-17T00:59:44.231Z,96.07
2017-11-17T01:02:11.748Z,104.93
2017-11-17T01:04:39.276Z,103.80
2017-11-17T01:07:06.788Z,110.20
2017-11-17T01:09:35.081Z,106.67
2017-11-17T01:12:02.601Z,111.93
2017-11-17T01:14:30.128Z,104.67
2017-11-17T01:16:57.636Z,94.43
2017-11-17T01:19:25.933Z,101.43
2017-11-17T01:21:53.441Z,98.20
2017-11-17T01:24:20.987Z,100.03
2017-11-17T01:26:48.501Z,110.53
2017-11-17T01:29:16.788Z,93.63
2017-11-17T01:31:44.307Z,96.97
2017-11-17T01:34:11.832Z,112.10
2017-11-17T01:36:39.349Z,104.67
2017-11-17T01:39:07.641Z,96.23
2017-11-17T01:41:35.152Z,115.97
2017-11-17T01:44:02.684Z,119.47
2017-11-17T01:46:30.193Z,101.93
2017-11-17T01:48:58.467Z,96.40
2017-11-17T01:51:26.756Z,93.80
2017-11-17T01:53:55.024Z,97.67
2017-11-17T01:56:23.329Z,104.50
2017-11-17T01:58:50.837Z,111.03
2017-11-17T02:01:18.360Z,114.63
2017-11-17T02:03:45.877Z,107.50
2017-11-17T02:06:14.173Z,98.57
2017-11-17T02:08:41.686Z,103.07
2017-11-17T02:11:09.219Z,111.53
2017-11-17T02:13:36.724Z,105.37
2017-11-17T02:16:05.012Z,108.57
2017-11-17T02:18:33.284Z,119.07
2017-11-17T02:21:01.576Z,110.57
2017-11-17T02:23:29.093Z,119.30
2017-11-17T02:25:56.624Z,113.00
2017-11-17T02:28:24.136Z,118.10
2017-11-17T02:30:52.425Z,117.20
2017-11-17T02:33:19.936Z,116.77
2017-11-17T02:35:47.465Z,102.63
2017-11-17T02:38:14.968Z,113.80
2017-11-17T02:40:43.269Z,113.83
2017-11-17T02:43:10.776Z,105.70
2017-11-17T02:45:39.104Z,109.00
2017-11-17T02:48:06.609Z,118.43
2017-11-17T02:50:34.120Z,114.17
2017-11-17T02:53:01.647Z,116.27
2017-11-17T02:55:29.155Z,112.13
2017-11-17T02:57:56.681Z,107.03
2017-11-17T03:00:24.962Z,102.90
2017-11-17T03:02:53.257Z,104.57
2017-11-17T03:05:20.772Z,114.20
2017-11-17T03:07:48.300Z,123.93
2017-11-17T03:10:15.806Z,109.33
2017-11-17T03:12:44.096Z,102.63
2017-11-17T03:15:11.604Z,125.00
2017-11-17T03:17:39.128Z,114.27
2017-11-17T03:20:06.636Z,111.20
2017-11-17T03:22:34.171Z,111.63
2017-11-17T03:25:01.692Z,119.07
2017-11-17T03:27:29.239Z,98.83
2017-11-17T03:29:57.511Z,110.67
2017-11-17T03:32:25.794Z,116.60
2017-11-17T03:34:54.064Z,103.33
2017-11-17T03:37:22.371Z,108.43
2017-11-17T03:39:49.878Z,98.07
2017-11-17T03:42:17.424Z,96.03
2017-11-17T03:44:44.937Z,110.67
2017-11-17T03:47:12.452Z,112.93
2017-11-17T03:49:39.984Z,106.83
2017-11-17T03:52:07.492Z,108.43
2017-11-17T03:54:35.788Z,105.10
2017-11-17T03:57:03.307Z,100.17
2017-11-17T03:59:30.842Z,112.43
2017-11-17T04:01:58.348Z,110.90
2017-11-17T04:04:25.879Z,108.03
2017-11-17T04:06:53.388Z,104.87
2017-11-17T04:09:20.911Z,108.43
2017-11-17T04:11:49.189Z,106.67
2017-11-17T04:14:17.476Z,116.27
2017-11-17T04:16:45.013Z,111.97
2017-11-17T04:19:13.309Z,90.37
2017-11-17T04:21:40.820Z,121.67
2017-11-17T04:24:08.348Z,112.17
2017-11-17T04:26:35.852Z,99.63
2017-11-17T04:29:03.381Z,109.87
2017-11-17T04:31:30.896Z,101.33
2017-11-17T04:33:59.184Z,105.73
2017-11-17T04:36:26.700Z,110.23
2017-11-17T04:38:54.251Z,115.07
2017-11-17T04:41:21.956Z,115.30
2017-11-17T04:43:50.241Z,117.40
2017-11-17T04:46:17.764Z,122.17
2017-11-17T04:48:45.271Z,100.87
2017-11-17T04:51:12.803Z,118.03
2017-11-17T04:53:41.079Z,101.40
2017-11-17T04:56:09.370Z,109.47
2017-11-17T04:58:36.887Z,107.13
2017-11-17T05:01:04.417Z,117.83
2017-11-17T05:03:31.919Z,110.63
2017-11-17T05:06:00.205Z,89.20
2017-11-17T05:08:28.475Z,106.80
2017-11-17T05:10:56.766Z,104.80
2017-11-17T05:13:24.292Z,132.53
2017-11-17T05:15:51.816Z,91.70
2017-11-17T05:18:20.090Z,115.13
2017-11-17T05:20:47.626Z,106.47
2017-11-17T05:23:15.141Z,117.40
2017-11-17T05:25:42.664Z,100.90
2017-11-17T05:28:10.162Z,112.83
2017-11-17T05:30:37.684Z,106.00
2017-11-17T05:33:05.188Z,113.33
2017-11-17T05:35:33.484Z,98.10
2017-11-17T05:38:00.989Z,117.17
2017-11-17T05:40:28.496Z,114.33
2017-11-17T05:42:56.020Z,103.50
2017-11-17T05:45:23.531Z,104.40
2017-11-17T05:47:51.059Z,97.13
2017-11-17T05:50:19.336Z,106.67
2017-11-17T05:52:47.625Z,109.77
2017-11-17T05:55:15.132Z,114.73
2017-11-17T05:57:42.666Z,108.63
2017-11-17T06:00:10.163Z,110.97
2017-11-17T06:02:37.680Z,117.50
2017-11-17T06:05:05.189Z,104.57
2017-11-17T06:07:32.720Z,98.70
2017-11-17T06:10:00.229Z,102.37
2017-11-17T06:12:27.756Z,112.77
2017-11-17T06:14:55.256Z,98.63
2017-11-17T06:17:22.776Z,109.77
2017-11-17T06:19:50.276Z,99.70
2017-11-17T06:22:17.797Z,104.00
2017-11-17T06:24:45.292Z,96.13
2017-11-17T06:27:12.828Z,92.67
2017-11-17T06:29:41.095Z,113.80
2017-11-17T06:32:09.368Z,101.27
2017-11-17T06:34:37.660Z,101.37
2017-11-17T06:37:05.929Z,106.87
2017-11-17T06:39:34.216Z,99.40
2017-11-17T06:42:01.720Z,105.90
2017-11-17T06:44:29.240Z,104.03
2017-11-17T06:46:56.739Z,90.23
2017-11-17T06:49:24.255Z,101.70
2017-11-17T06:51:51.771Z,113.03
2017-11-17T06:54:19.301Z,112.57
2017-11-17T06:56:46.807Z,96.10
2017-11-17T06:59:15.095Z,109.43
2017-11-17T07:01:43.365Z,121.00
2017-11-17T07:04:11.656Z,116.33
2017-11-17T07:06:39.164Z,95.30
2017-11-17T07:09:06.690Z,96.93
2017-11-17T07:11:34.207Z,103.13
2017-11-17T07:14:02.493Z,96.60
2017-11-17T07:16:30.013Z,96.27
2017-11-17T07:18:57.536Z,101.50
2017-11-17T07:21:25.040Z,103.07
2017-11-17T07:23:52.591Z,94.83
2017-11-17T07:26:20.092Z,96.53
2017-11-17T07:28:47.588Z,89.07
2017-11-17T07:31:15.113Z,103.90
2017-11-17T07:33:42.624Z,111.47
2017-11-17T07:36:10.147Z,111.67
2017-11-17T07:38:37.653Z,95.23
2017-11-17T07:41:05.179Z,102.63
2017-11-17T07:43:32.688Z,112.50
2017-11-17T07:46:00.984Z,96.90
2017-11-17T07:48:28.511Z,105.80
2017-11-17T07:50:56.808Z,102.67
2017-11-17T07:53:24.316Z,96.50
2017-11-17T07:55:51.857Z,105.67
2017-11-17T07:58:20.136Z,114.43
2017-11-17T08:00:47.655Z,98.43
2017-11-17T08:03:15.939Z,100.83
2017-11-17T08:05:43.773Z,92.40
2017-11-17T08:08:11.272Z,93.37
2017-11-17T08:10:38.818Z,104.43
2017-11-17T08:13:06.337Z,109.20
2017-11-17T08:15:33.869Z,115.27
2017-11-17T08:18:13.092Z,102.07
2017-11-17T08:20:40.616Z,100.70
2017-11-17T08:23:08.893Z,99.40
2017-11-17T08:25:37.170Z,112.37
2017-11-17T08:28:05.459Z,87.70
2017-11-17T08:30:32.997Z,114.33
2017-11-17T08:33:01.288Z,92.07
2017-11-17T08:35:28.800Z,91.83
2017-11-17T08:37:56.338Z,102.03
2017-11-17T08:40:23.849Z,88.23
2017-11-17T08:42:52.146Z,90.90
2017-11-17T08:45:19.656Z,104.90
2017-11-17T08:47:47.181Z,95.50
2017-11-17T08:50:14.687Z,95.83
2017-11-17T08:52:42.217Z,104.97
2017-11-17T08:55:09.733Z,118.57
2017-11-17T08:57:37.269Z,84.40
2017-11-17T09:00:05.549Z,90.00
2017-11-17T09:02:33.842Z,93.63
2017-11-17T09:05:01.365Z,115.90
2017-11-17T09:07:28.895Z,92.90
2017-11-17T09:09:57.170Z,89.07
2017-11-17T09:12:24.689Z,87.20
2017-11-17T09:14:52.196Z,95.13
2017-11-17T09:17:19.723Z,93.80
2017-11-17T09:19:47.249Z,89.50
2017-11-17T09:22:15.526Z,90.93
2017-11-17T09:24:43.826Z,106.40
2017-11-17T09:27:11.336Z,96.97
2017-11-17T09:29:38.945Z,99.90
2017-11-17T09:32:06.466Z,91.67
2017-11-17T09:34:34.001Z,110.20
2017-11-17T09:37:01.515Z,88.23
2017-11-17T09:39:29.041Z,78.93
2017-11-17T09:41:56.550Z,97.67
2017-11-17T09:44:24.081Z,85.17
2017-11-17T09:46:52.356Z,85.43
2017-11-17T09:49:20.654Z,83.40
2017-11-17T09:51:48.169Z,85.60
2017-11-17T09:54:15.688Z,95.07
2017-11-17T09:56:43.194Z,83.23
2017-11-17T09:59:11.495Z,80.70
2017-11-17T10:01:39.000Z,78.77
2017-11-17T10:04:06.528Z,92.87
2017-11-17T10:06:34.040Z,79.30
2017-11-17T10:09:02.332Z,85.67
2017-11-17T10:14:34.408Z,85.87
2017-11-17T10:17:02.678Z,79.97
2017-11-17T10:19:30.973Z,88.40
2017-11-17T10:21:59.245Z,91.17
2017-11-17T10:24:27.540Z,83.33
2017-11-17T10:26:55.057Z,86.77
2017-11-17T10:29:22.606Z,84.57
2017-11-17T10:31:50.471Z,88.23
2017-11-17T10:34:18.045Z,81.83
2017-11-17T10:36:46.378Z,90.47
2017-11-17T10:39:14.022Z,91.40
2017-11-17T10:41:42.380Z,80.47
2017-11-17T10:44:09.940Z,87.87
2017-11-17T10:46:37.578Z,86.67
2017-11-17T10:49:05.897Z,76.57
2017-11-17T10:51:33.494Z,75.17
2017-11-17T10:54:01.031Z,83.60
2017-11-17T10:56:30.396Z,83.33
2017-11-17T10:59:03.722Z,73.23
2017-11-17T11:01:31.336Z,85.60
2017-11-17T11:04:00.560Z,85.83
2017-11-17T11:06:28.146Z,79.77
2017-11-17T11:08:55.725Z,77.27
2017-11-17T11:11:29.663Z,84.17
2017-11-17T11:13:57.969Z,74.83
2017-11-17T11:16:25.522Z,79.33
2017-11-17T11:18:53.101Z,84.50
2017-11-17T11:21:20.650Z,68.90
2017-11-17T11:23:48.193Z,74.50
2017-11-17T11:26:15.819Z,85.13
2017-11-17T11:28:43.397Z,78.70
2017-11-17T11:31:11.745Z,79.73
2017-11-17T11:33:39.373Z,73.60
2017-11-17T11:36:07.103Z,76.50
2017-11-17T11:38:35.509Z,71.17
2017-11-17T11:41:03.086Z,70.50
2017-11-17T11:43:30.643Z,71.93
2017-11-17T11:45:58.182Z,81.87
2017-11-17T11:48:25.731Z,73.83
2017-11-17T11:50:53.255Z,75.00
2017-11-17T11:53:20.795Z,75.10
2017-11-17T11:55:48.310Z,78.47
2017-11-17T11:58:15.872Z,77.23
2017-11-17T12:00:43.385Z,64.67
2017-11-17T12:03:10.908Z,74.30
2017-11-17T12:05:38.415Z,72.17
2017-11-17T12:08:06.736Z,61.20
2017-11-17T12:10:34.261Z,69.93
2017-11-17T12:13:02.556Z,69.10
2017-11-17T12:15:30.130Z,73.07
2017-11-17T12:17:57.661Z,66.93
2017-11-17T12:20:25.938Z,72.50
2017-11-17T12:22:54.228Z,68.63
2017-11-17T12:25:21.740Z,77.00
2017-11-17T12:27:49.271Z,67.30
2017-11-17T12:30:16.808Z,65.13
2017-11-17T12:32:44.388Z,69.27
2017-11-17T12:35:11.923Z,71.33
2017-11-17T12:37:39.448Z,65.00
2017-11-17T12:40:06.966Z,69.57
2017-11-17T12:42:34.514Z,67.77
2017-11-17T12:45:02.020Z,65.87
2017-11-17T12:47:29.532Z,75.03
2017-11-17T12:49:57.056Z,71.90
2017-11-17T12:52:25.336Z,68.63
2017-11-17T12:54:52.867Z,72.17
2017-11-17T12:57:20.468Z,70.43
2017-11-17T12:59:47.993Z,72.80
2017-11-17T13:02:16.271Z,70.67
2017-11-17T13:04:44.586Z,67.97
2017-11-17T13:07:12.141Z,56.90
2017-11-17T13:09:39.664Z,74.87
2017-11-17T13:12:07.948Z,66.90
2017-11-17T13:14:36.249Z,67.70
2017-11-17T13:17:03.808Z,69.40
2017-11-17T13:19:31.332Z,66.10
2017-11-17T13:21:59.612Z,67.40
2017-11-17T13:24:27.912Z,71.10
2017-11-17T13:26:55.489Z,65.40
2017-11-17T13:29:23.016Z,68.20
2017-11-17T13:31:51.290Z,66.27
2017-11-17T13:34:19.593Z,71.73
2017-11-17T13:36:47.112Z,71.67
2017-11-17T13:39:15.432Z,62.90
2017-11-17T13:41:42.984Z,73.23
2017-11-17T13:44:10.504Z,74.63
2017-11-17T13:46:39.065Z,68.57
2017-11-17T13:49:07.469Z,71.93
2017-11-17T13:51:35.768Z,64.10
2017-11-17T13:54:03.286Z,67.70
2017-11-17T13:56:30.816Z,77.97
2017-11-17T13:58:58.359Z,72.20
2017-11-17T14:01:25.920Z,73.60
2017-11-17T14:03:53.426Z,65.13
2017-11-17T14:06:20.949Z,76.43
2017-11-17T14:08:48.475Z,79.63
2017-11-17T14:11:16.008Z,69.33
2017-11-17T14:13:43.528Z,76.23
2017-11-17T14:16:11.061Z,68.33
2017-11-17T14:18:38.577Z,73.60
2017-11-17T14:21:06.108Z,68.93
2017-11-17T14:23:34.680Z,83.57
2017-11-17T14:26:02.281Z,74.90
2017-11-17T14:28:29.874Z,79.87
2017-11-17T14:30:58.265Z,74.00
2017-11-17T14:35:59.858Z,67.77
2017-11-17T14:38:27.419Z,67.90
2017-11-17T14:40:54.983Z,71.93
2017-11-17T14:43:22.680Z,67.77
2017-11-17T14:45:50.377Z,65.03
2017-11-17T14:48:18.024Z,75.37
2017-11-17T14:50:45.667Z,74.63
2017-11-17T14:53:13.189Z,71.97
2017-11-17T14:55:40.760Z,74.77
2017-11-17T14:58:08.450Z,75.47
2017-11-17T15:00:36.869Z,88.77
2017-11-17T15:03:04.412Z,78.17
2017-11-17T15:05:31.996Z,74.27
2017-11-17T15:07:59.593Z,73.60
2017-11-17T15:10:27.157Z,73.33
2017-11-17T15:12:54.782Z,79.63
2017-11-17T15:15:22.400Z,78.70
2017-11-17T15:17:49.981Z,80.77
2017-11-17T15:20:17.597Z,78.50
2017-11-17T15:22:45.528Z,72.73
2017-11-17T15:25:13.076Z,74.80
2017-11-17T15:27:40.623Z,75.33
2017-11-17T15:30:08.195Z,69.77
2017-11-17T15:32:35.745Z,74.83
2017-11-17T15:35:03.282Z,72.53
2017-11-17T15:37:30.845Z,85.07
2017-11-17T15:39:58.383Z,81.17
2017-11-17T15:42:26.711Z,79.33
2017-11-17T15:44:54.250Z,66.43
2017-11-17T15:47:21.851Z,76.63
2017-11-17T15:49:49.443Z,67.27
2017-11-17T15:52:17.801Z,82.90
2017-11-17T15:54:45.437Z,130.30
2017-11-17T15:59:47.147Z,93.10
2017-11-17T16:02:15.912Z,80.47
2017-11-17T16:04:43.487Z,136.10
2017-11-17T16:07:11.067Z,141.43
2017-11-17T16:09:39.409Z,109.20
2017-11-17T16:12:06.962Z,98.40
2017-11-17T16:14:34.516Z,86.90
2017-11-17T16:17:02.101Z,65.33
2017-11-17T16:19:30.458Z,64.80
2017-11-17T16:21:58.034Z,66.30
2017-11-17T16:24:25.600Z,68.83
2017-11-17T16:26:53.988Z,74.83
2017-11-17T16:31:56.342Z,78.57
2017-11-17T16:34:23.887Z,61.27
2017-11-17T16:36:51.442Z,77.60
2017-11-17T16:39:19.010Z,62.03
2017-11-17T16:41:46.574Z,77.13
2017-11-17T16:44:14.214Z,64.03
2017-11-17T16:46:41.756Z,71.50
2017-11-17T16:49:09.272Z,70.43
2017-11-17T16:51:36.805Z,62.63
2017-11-17T16:54:04.324Z,61.17
2017-11-17T16:56:32.612Z,63.37
2017-11-17T16:59:00.129Z,66.83
2017-11-17T17:01:27.661Z,61.33
2017-11-17T17:03:55.167Z,57.83
2017-11-17T17:06:23.469Z,72.00
2017-11-17T17:08:50.988Z,58.47
2017-11-17T17:11:19.279Z,63.20
2017-11-17T17:13:47.567Z,58.40
2017-11-17T17:16:15.107Z,57.97
2017-11-17T17:18:43.406Z,73.87
2017-11-17T17:21:10.936Z,75.67
2017-11-17T17:23:39.509Z,79.03
2017-11-17T17:26:07.037Z,70.03
2017-11-17T17:28:34.784Z,87.70
2017-11-17T17:31:03.153Z,82.47
2017-11-17T17:33:30.664Z,87.17
2017-11-17T17:35:58.220Z,76.30
2017-11-17T17:38:25.731Z,77.23
2017-11-17T17:40:53.492Z,81.97
2017-11-17T17:43:21.018Z,81.23
2017-11-17T17:45:49.292Z,96.53
2017-11-17T17:48:16.828Z,62.70
2017-11-17T17:50:44.344Z,64.33
2017-11-17T17:53:11.874Z,75.10
2017-11-17T17:55:40.157Z,65.13
2017-11-17T17:58:08.448Z,69.90
2017-11-17T18:00:35.960Z,74.53
2017-11-17T18:03:03.495Z,71.60
2017-11-17T18:05:31.775Z,72.73
2017-11-17T18:07:59.304Z,72.77
2017-11-17T18:10:26.816Z,69.67
2017-11-17T18:12:54.336Z,77.03
2017-11-17T18:15:21.844Z,70.10
2017-11-17T18:17:49.374Z,79.47
2017-11-17T18:20:16.892Z,64.73
2017-11-17T18:22:44.421Z,85.03
2017-11-17T18:25:12.716Z,73.03
2017-11-17T18:27:41.032Z,72.70
2017-11-17T18:30:08.575Z,83.03
2017-11-17T18:32:36.087Z,80.10
2017-11-17T18:35:03.596Z,84.53
2017-11-17T18:37:31.152Z,83.43
2017-11-17T18:39:58.707Z,89.17
2017-11-17T18:42:27.025Z,78.00
2017-11-17T18:44:54.553Z,82.77
2017-11-17T18:47:22.816Z,81.53
2017-11-17T18:49:50.376Z,85.47
2017-11-17T18:52:18.624Z,88.07
2017-11-17T18:54:46.945Z,94.67
2017-11-17T18:57:14.458Z,94.43
2017-11-17T18:59:42.761Z,93.80
2017-11-17T19:02:10.282Z,103.80
2017-11-17T19:04:38.581Z,82.80
2017-11-17T19:07:06.110Z,101.27
2017-11-17T19:09:33.694Z,96.97
2017-11-17T19:12:01.170Z,103.90
2017-11-17T19:14:28.754Z,80.90
2017-11-17T19:16:56.236Z,101.50
2017-11-17T19:19:23.764Z,95.70
2017-11-17T19:21:51.276Z,100.83
2017-11-17T19:24:19.568Z,92.00
2017-11-17T19:26:47.080Z,93.83
2017-11-17T19:29:14.619Z,95.90
2017-11-17T19:31:42.124Z,101.63
2017-11-17T19:34:10.442Z,97.03
2017-11-17T19:36:37.963Z,98.60
2017-11-17T19:39:05.548Z,101.17
2017-11-17T19:41:33.067Z,97.30
2017-11-17T19:44:01.348Z,100.07
2017-11-17T19:46:29.641Z,97.10
2017-11-17T19:48:57.911Z,91.23
2017-11-17T19:51:26.256Z,86.80
2017-11-17T19:53:53.769Z,97.43
2017-11-17T19:56:21.338Z,95.63
2017-11-17T19:58:48.853Z,85.63
2017-11-17T20:01:17.146Z,95.50
2017-11-17T20:03:45.424Z,84.90
2017-11-17T20:06:13.815Z,86.90
2017-11-17T20:08:41.385Z,89.37
2017-11-17T20:11:08.932Z,91.93
2017-11-17T20:13:36.496Z,95.90
2017-11-17T20:16:04.076Z,106.53
2017-11-17T20:18:31.619Z,97.03
2017-11-17T20:20:59.193Z,80.83
2017-11-17T20:23:26.756Z,90.50
2017-11-17T20:25:54.335Z,90.80
2017-11-17T20:28:21.848Z,85.00
2017-11-17T20:30:49.403Z,85.70
2017-11-17T20:33:16.968Z,84.37
2017-11-17T20:35:44.481Z,84.17
2017-11-17T20:38:12.084Z,85.87
2017-11-17T20:40:39.600Z,83.43
2017-11-17T20:43:07.573Z,91.37
2017-11-17T20:45:36.588Z,87.10
2017-11-17T20:48:04.984Z,90.30
2017-11-17T20:50:33.392Z,88.50
2017-11-17T20:53:00.923Z,78.90
2017-11-17T20:55:28.499Z,92.63
2017-11-17T20:57:56.092Z,76.17
2017-11-17T21:00:24.685Z,91.83
2017-11-17T21:02:52.220Z,89.10
2017-11-17T21:05:19.967Z,98.00
2017-11-17T21:07:47.572Z,104.70
2017-11-17T21:10:16.005Z,115.80
2017-11-17T21:12:43.581Z,123.87
2017-11-17T21:15:11.101Z,115.97
2017-11-17T21:17:38.637Z,96.03
2017-11-17T21:20:06.988Z,81.87
2017-11-17T21:22:34.520Z,98.30
2017-11-17T21:25:02.024Z,84.30
2017-11-17T21:27:30.413Z,91.00
2017-11-17T21:29:58.736Z,96.00
2017-11-17T21:32:26.269Z,80.57
2017-11-17T21:34:53.833Z,94.27
2017-11-17T21:37:21.391Z,91.30
2017-11-17T21:39:48.981Z,95.33
2017-11-17T21:42:16.496Z,80.43
2017-11-17T21:44:44.108Z,73.70
2017-11-17T21:47:11.660Z,83.43
2017-11-17T21:49:39.188Z,78.80
2017-11-17T21:52:06.861Z,83.20
2017-11-17T21:54:34.383Z,64.53
2017-11-17T21:57:02.720Z,76.40
2017-11-17T21:59:30.254Z,80.77
2017-11-17T22:01:57.845Z,81.13
2017-11-17T22:04:25.379Z,86.10
2017-11-17T22:06:52.932Z,91.17
2017-11-17T22:09:20.472Z,84.50
2017-11-17T22:11:48.032Z,90.27
2017-11-17T22:14:15.572Z,89.27
2017-11-17T22:16:43.869Z,91.43
2017-11-17T22:19:11.444Z,83.87
2017-11-17T22:21:38.955Z,86.80
2017-11-17T22:24:06.536Z,99.33
2017-11-17T22:26:34.077Z,87.97
2017-11-17T22:29:02.418Z,85.97
2017-11-17T22:31:30.728Z,92.80
2017-11-17T22:33:59.080Z,81.83
2017-11-17T22:36:26.693Z,87.20
2017-11-17T22:38:54.205Z,76.97
2017-11-17T22:41:21.730Z,74.83
2017-11-17T22:43:49.241Z,93.20
2017-11-17T22:46:17.527Z,83.40
2017-11-17T22:48:45.799Z,82.50
2017-11-17T22:51:14.084Z,88.53
2017-11-17T22:53:42.361Z,78.53
2017-11-17T22:56:10.652Z,87.90
2017-11-17T22:58:38.178Z,84.87
2017-11-17T23:01:06.478Z,75.00
2017-11-17T23:03:33.983Z,87.30
2017-11-17T23:06:01.504Z,87.57
2017-11-17T23:08:29.012Z,84.27
2017-11-17T23:10:56.536Z,87.50
2017-11-17T23:13:24.044Z,80.47
2017-11-17T23:15:52.340Z,101.70
2017-11-17T23:18:20.952Z,82.47
2017-11-17T23:20:48.480Z,73.87
2017-11-17T23:23:16.756Z,79.73
2017-11-17T23:25:45.040Z,89.03
2017-11-17T23:28:12.548Z,86.73
2017-11-17T23:30:40.097Z,86.60
2017-11-17T23:33:07.600Z,72.30
2017-11-17T23:35:35.867Z,82.10
2017-11-17T23:38:04.160Z,79.37
2017-11-17T23:40:31.663Z,76.20
2017-11-17T23:42:59.193Z,73.67
2017-11-17T23:45:26.705Z,89.13
2017-11-17T23:47:54.228Z,96.43
2017-11-17T23:50:22.512Z,100.47
2017-11-17T23:52:50.031Z,99.30
2017-11-17T23:55:17.540Z,86.13
2017-11-17T23:57:45.072Z,93.93
